KAAF/AAF METAR and TAF weather

Enter ICAO airport designator
Station Type Date Time Source
KAAF METAR 2019/02/23 02:25 UTC NOAA

KAAF 230225Z AUTO 10004KT 10SM BKN006 OVC110 20/19 A3013 RMK AO2 T02000189


Station Type Date Time Source
KAAF Decoded METAR 2019/02/23 02:25 UTC NOAA

APALACHICOLA MUNICIPAL AIRPORT, FL, United States (KAAF) 29-44N 085-01W 5M
Feb 22, 2019 - 09:25 PM EST / 2019.02.23 0225 UTC
Wind: from the E (100 degrees) at 5 MPH (4 KT):0
Visibility: 10 mile(s):0
Sky conditions: overcast
Temperature: 68.0 F (20.0 C)
Dew Point: 66.0 F (18.9 C)
Relative Humidity: 93%
Pressure (altimeter): 30.13 in. Hg (1020 hPa)
ob: KAAF 230225Z AUTO 10004KT 10SM BKN006 OVC110 20/19 A3013 RMK AO2 T02000189
cycle: 2

Station Type Date Time Source
KAAF TAF UTC NOAA

Error!


Example: see airport list